Time;durP1;ratioP1;P1;durP2;ratioP2;P2;SDS_P1;SDS_P2;PMS_P1;PMS_P2;Temp;Humidity;BMP_temperature;BMP_pressure;BME280_temperature;BME280_humidity;BME280_pressure;Samples;Min_cycle;Max_cycle;Signal;HPM_P1;HPM_P2
2023/05/25 00:00:06;;;;;;;13.50;9.77;;;;;;;16.40;100.00;101039.47;2100341;28;20106;-72
2023/05/25 00:01:29;;;;;;;15.15;10.32;;;;;;;16.39;100.00;101035.03;2102763;28;20052;-71
2023/05/25 00:02:53;;;;;;;14.60;10.07;;;;;;;16.37;100.00;101042.13;2111407;28;20046;-71
2023/05/25 00:04:15;;;;;;;14.77;9.52;;;;;;;16.38;100.00;101043.00;2107907;28;20064;-71
2023/05/25 00:05:39;;;;;;;12.20;9.68;;;;;;;16.36;100.00;101043.00;2102838;28;20039;-71
2023/05/25 00:07:00;;;;;;;12.68;9.90;;;;;;;16.36;100.00;101048.34;2107257;28;20405;-72
2023/05/25 00:08:23;;;;;;;13.10;10.68;;;;;;;16.35;100.00;101043.91;2105184;28;20048;-71
2023/05/25 00:09:45;;;;;;;13.30;10.65;;;;;;;16.36;100.00;101051.00;2108799;28;20042;-72
2023/05/25 00:11:08;;;;;;;13.40;10.18;;;;;;;16.35;100.00;101043.91;2105642;28;20075;-71
2023/05/25 00:12:29;;;;;;;14.45;10.60;;;;;;;16.33;100.00;101043.94;2086084;28;20053;-71
2023/05/25 00:13:52;;;;;;;15.35;10.52;;;;;;;16.29;100.00;101039.47;2097278;28;20143;-71
2023/05/25 00:15:14;;;;;;;17.70;10.77;;;;;;;16.22;100.00;101042.16;2105066;28;20051;-71
2023/05/25 00:16:39;;;;;;;16.45;11.80;;;;;;;16.18;100.00;101045.75;2106978;28;20141;-72
2023/05/25 00:18:00;;;;;;;14.18;10.45;;;;;;;16.17;100.00;101051.97;2103313;28;20514;-71
2023/05/25 00:19:23;;;;;;;14.65;10.73;;;;;;;16.20;100.00;101043.97;2105240;28;20592;-71
2023/05/25 00:20:46;;;;;;;12.20;10.70;;;;;;;16.22;100.00;101044.81;2096889;28;20048;-71
2023/05/25 00:22:09;;;;;;;12.57;10.07;;;;;;;16.22;100.00;101043.06;2113007;27;20065;-71
2023/05/25 00:23:30;;;;;;;13.70;10.57;;;;;;;16.23;100.00;101046.59;2100134;28;21039;-72
2023/05/25 00:24:52;;;;;;;14.80;11.02;;;;;;;16.24;100.00;101043.94;2102569;28;20504;-71
2023/05/25 00:26:14;;;;;;;13.27;10.68;;;;;;;16.24;100.00;101038.63;2105917;28;20048;-71
2023/05/25 00:27:36;;;;;;;14.85;11.30;;;;;;;16.24;100.00;101041.28;2111146;28;20081;-70
2023/05/25 00:28:59;;;;;;;14.10;11.02;;;;;;;16.18;100.00;101033.31;2102487;28;20396;-71
2023/05/25 00:30:21;;;;;;;15.45;11.15;;;;;;;16.15;100.00;101030.63;2109231;27;20043;-71
2023/05/25 00:31:42;;;;;;;14.05;11.00;;;;;;;16.14;100.00;101034.22;2103907;28;20067;-71
2023/05/25 00:33:05;;;;;;;15.05;11.40;;;;;;;16.12;100.00;101033.34;2107031;28;20055;-72
2023/05/25 00:34:26;;;;;;;12.82;10.63;;;;;;;16.10;100.00;101034.22;2110449;28;20048;-71
2023/05/25 00:35:51;;;;;;;13.88;11.10;;;;;;;16.10;100.00;101031.53;2110006;28;20079;-71
2023/05/25 00:37:13;;;;;;;16.92;11.38;;;;;;;16.09;100.00;101027.09;2111060;28;20093;-71
2023/05/25 00:38:35;;;;;;;13.68;11.43;;;;;;;16.07;100.00;101027.13;2093928;28;20139;-71
2023/05/25 00:39:57;;;;;;;14.85;11.70;;;;;;;16.06;100.00;101028.03;2094336;28;20044;-71
2023/05/25 00:41:19;;;;;;;15.50;11.20;;;;;;;16.06;100.00;101027.13;2101351;28;20210;-71
2023/05/25 00:42:42;;;;;;;15.63;10.95;;;;;;;16.05;100.00;101028.91;2099374;28;20071;-71
2023/05/25 00:44:04;;;;;;;14.93;10.98;;;;;;;16.03;100.00;101029.78;2102374;28;20155;-71
2023/05/25 00:45:26;;;;;;;14.77;12.10;;;;;;;16.00;100.00;101028.03;2093945;28;20059;-71
2023/05/25 00:46:49;;;;;;;15.25;11.90;;;;;;;16.00;100.00;101038.69;2116811;27;20051;-71
2023/05/25 00:48:12;;;;;;;14.45;11.13;;;;;;;16.00;100.00;101032.47;2112494;28;20051;-71
2023/05/25 00:49:36;;;;;;;17.38;11.48;;;;;;;16.01;100.00;101034.25;2101673;28;20051;-73
2023/05/25 00:50:59;;;;;;;13.43;11.07;;;;;;;16.02;100.00;101028.91;2099877;28;20048;-71
2023/05/25 00:52:22;;;;;;;15.35;11.60;;;;;;;16.03;100.00;101030.69;2093608;28;20110;-71
2023/05/25 00:53:43;;;;;;;13.93;11.45;;;;;;;16.05;100.00;101034.25;2107612;28;20097;-71
2023/05/25 00:55:10;;;;;;;14.60;10.65;;;;;;;16.05;100.00;101036.91;2097266;28;20055;-71
2023/05/25 00:56:34;;;;;;;14.63;10.82;;;;;;;16.07;100.00;101028.91;2108491;28;20047;-71
2023/05/25 00:58:00;;;;;;;15.23;10.23;;;;;;;16.08;100.00;101026.22;2102278;28;20484;-71
2023/05/25 00:59:27;;;;;;;14.75;12.00;;;;;;;16.09;100.00;101027.09;2103578;28;20139;-71
2023/05/25 01:00:52;;;;;;;14.13;11.20;;;;;;;16.08;100.00;101020.91;2094719;28;20397;-71
2023/05/25 01:02:18;;;;;;;16.83;11.40;;;;;;;16.09;100.00;101030.66;2100268;28;20123;-71
2023/05/25 01:03:44;;;;;;;16.70;11.63;;;;;;;16.07;100.00;101023.59;2108676;28;20138;-71
2023/05/25 01:05:08;;;;;;;15.32;11.45;;;;;;;16.01;100.00;101027.16;2098941;28;20095;-71
2023/05/25 01:06:33;;;;;;;14.93;12.30;;;;;;;15.97;100.00;101016.50;2111105;28;20048;-71
2023/05/25 01:07:58;;;;;;;14.65;11.60;;;;;;;15.95;100.00;101025.38;2096784;28;20044;-71
2023/05/25 01:09:23;;;;;;;16.45;12.13;;;;;;;15.89;100.00;101017.41;2096489;28;20059;-71
2023/05/25 01:10:48;;;;;;;14.75;11.65;;;;;;;15.83;100.00;101022.72;2099508;28;20063;-71
2023/05/25 01:12:11;;;;;;;13.63;11.38;;;;;;;15.78;100.00;101024.53;2100482;28;20112;-71
2023/05/25 01:13:37;;;;;;;14.30;12.20;;;;;;;15.77;100.00;101028.06;2099207;28;20052;-71
2023/05/25 01:15:02;;;;;;;15.27;12.50;;;;;;;15.81;100.00;101026.31;2106963;28;20056;-71
2023/05/25 01:16:24;;;;;;;17.60;12.70;;;;;;;15.85;100.00;101028.06;2102985;28;20035;-71
2023/05/25 01:17:52;;;;;;;14.73;11.93;;;;;;;15.87;100.00;101029.84;2100896;28;20084;-71
2023/05/25 01:19:15;;;;;;;13.98;11.43;;;;;;;15.88;100.00;101020.94;2109555;28;20085;-71
2023/05/25 01:20:37;;;;;;;17.05;11.82;;;;;;;15.89;100.00;101029.81;2109755;28;20078;-71
2023/05/25 01:22:05;;;;;;;13.70;10.90;;;;;;;15.91;100.00;101026.28;2108342;28;20422;-71
2023/05/25 01:23:32;;;;;;;15.13;11.07;;;;;;;15.93;100.00;101028.94;2101524;28;20055;-71
2023/05/25 01:25:01;;;;;;;15.05;10.85;;;;;;;15.94;100.00;101022.72;2102939;28;20044;-71
2023/05/25 01:26:26;;;;;;;15.25;11.35;;;;;;;15.94;100.00;101020.06;2102337;28;20035;-71
2023/05/25 01:27:54;;;;;;;17.83;11.13;;;;;;;15.96;100.00;101023.59;2106634;28;20506;-72
2023/05/25 01:29:17;;;;;;;13.57;10.85;;;;;;;15.97;100.00;101016.50;2103135;28;20044;-71
2023/05/25 01:30:41;;;;;;;13.10;10.63;;;;;;;15.98;100.00;101018.28;2098848;28;20109;-71
2023/05/25 01:32:03;;;;;;;13.18;10.55;;;;;;;15.97;100.00;101019.16;2105993;28;20051;-71
2023/05/25 01:33:29;;;;;;;13.65;10.65;;;;;;;15.97;100.00;101021.81;2106973;28;20047;-71
2023/05/25 01:34:55;;;;;;;18.73;11.07;;;;;;;15.97;100.00;101024.47;2102794;28;20902;-71
2023/05/25 01:36:16;;;;;;;15.80;11.05;;;;;;;15.95;100.00;101021.81;2094307;28;20032;-71
2023/05/25 01:37:46;;;;;;;15.73;12.63;;;;;;;15.94;100.00;101026.28;2091152;28;20040;-71
2023/05/25 01:39:09;;;;;;;17.33;13.07;;;;;;;15.92;100.00;101022.72;2093197;28;20040;-71
2023/05/25 01:40:33;;;;;;;16.58;12.13;;;;;;;15.90;100.00;101029.81;2100840;28;20093;-72
2023/05/25 01:41:57;;;;;;;16.42;12.80;;;;;;;15.89;100.00;101030.72;2099866;28;20054;-71
2023/05/25 01:43:18;;;;;;;17.48;12.95;;;;;;;15.88;100.00;101026.25;2094363;28;20040;-71
2023/05/25 01:44:41;;;;;;;19.80;13.23;;;;;;;15.88;100.00;101025.41;2093537;28;20076;-71
2023/05/25 01:46:11;;;;;;;17.13;13.40;;;;;;;15.88;100.00;101031.59;2104800;28;20052;-71
2023/05/25 01:47:47;;;;;;;18.50;13.32;;;;;;;15.86;100.00;101027.19;2111909;28;20138;-71
2023/05/25 01:49:26;;;;;;;16.35;12.77;;;;;;;15.84;100.00;101034.28;2096230;28;20464;-71
2023/05/25 01:50:52;;;;;;;15.13;12.40;;;;;;;15.82;100.00;101036.03;2095801;28;20052;-71
2023/05/25 01:52:21;;;;;;;14.50;12.40;;;;;;;15.81;100.00;101035.19;2102662;28;20062;-71
2023/05/25 01:53:52;;;;;;;18.35;12.23;;;;;;;15.81;100.00;101039.63;2097733;28;20073;-71
2023/05/25 01:55:16;;;;;;;13.77;11.15;;;;;;;15.78;100.00;101036.94;2096363;28;20049;-71
2023/05/25 01:56:41;;;;;;;16.95;11.40;;;;;;;15.77;100.00;101041.38;2102319;28;20036;-71
2023/05/25 01:58:05;;;;;;;14.88;12.32;;;;;;;15.77;100.00;101038.72;2094322;28;20055;-71
2023/05/25 01:59:30;;;;;;;15.73;12.10;;;;;;;15.76;100.00;101038.72;2097538;28;20139;-71
2023/05/25 02:00:52;;;;;;;15.07;12.00;;;;;;;15.75;100.00;101034.31;2107010;28;20086;-71
2023/05/25 02:02:17;;;;;;;19.52;12.00;;;;;;;15.76;100.00;101041.38;2094000;28;20044;-71
2023/05/25 02:03:40;;;;;;;15.23;12.00;;;;;;;15.73;100.00;101034.28;2104423;28;20404;-72
2023/05/25 02:05:03;;;;;;;15.93;12.88;;;;;;;15.72;100.00;101031.63;2096226;28;20044;-71
2023/05/25 02:06:25;;;;;;;18.75;12.63;;;;;;;15.70;100.00;101039.59;2101782;28;20044;-71
2023/05/25 02:07:47;;;;;;;14.60;12.13;;;;;;;15.69;100.00;101037.81;2099372;28;20039;-72
2023/05/25 02:09:11;;;;;;;14.95;12.10;;;;;;;15.67;100.00;101028.97;2116101;28;20046;-71
2023/05/25 02:10:32;;;;;;;14.82;11.82;;;;;;;15.65;100.00;101029.84;2103955;28;20859;-71
2023/05/25 02:11:55;;;;;;;16.63;12.75;;;;;;;15.64;100.00;101031.63;2101104;28;20551;-71
2023/05/25 02:13:17;;;;;;;19.85;13.65;;;;;;;15.63;100.00;101027.19;2091994;28;20033;-71
2023/05/25 02:14:40;;;;;;;18.95;14.13;;;;;;;15.62;100.00;101027.22;2089234;28;20470;-71
2023/05/25 02:16:02;;;;;;;17.33;13.65;;;;;;;15.60;100.00;101023.66;2095541;28;20052;-71
2023/05/25 02:17:27;;;;;;;20.75;13.80;;;;;;;15.60;100.00;101031.66;2115282;28;20076;-71
2023/05/25 02:18:49;;;;;;;17.67;13.63;;;;;;;15.57;100.00;101027.19;2113304;28;20535;-71
2023/05/25 02:20:13;;;;;;;20.90;14.40;;;;;;;15.56;100.00;101029.88;2101520;28;20051;-71
2023/05/25 02:21:36;;;;;;;19.33;13.48;;;;;;;15.54;100.00;101028.09;2116362;28;20039;-71
2023/05/25 02:22:59;;;;;;;17.38;13.57;;;;;;;15.53;100.00;101028.09;2106915;28;20113;-71
2023/05/25 02:24:26;;;;;;;17.90;13.48;;;;;;;15.52;100.00;101027.22;2090331;28;20079;-70
2023/05/25 02:25:50;;;;;;;17.75;14.10;;;;;;;15.52;100.00;101028.94;2098181;28;20060;-71
2023/05/25 02:27:13;;;;;;;20.65;15.18;;;;;;;15.51;100.00;101022.72;2109995;28;20511;-71
2023/05/25 02:28:35;;;;;;;22.08;14.45;;;;;;;15.50;100.00;101022.72;2103322;28;20040;-71
2023/05/25 02:29:58;;;;;;;18.85;14.05;;;;;;;15.50;100.00;101022.72;2109199;28;20044;-71
2023/05/25 02:31:20;;;;;;;21.25;14.20;;;;;;;15.48;100.00;101024.53;2103541;28;20059;-70
2023/05/25 02:32:43;;;;;;;21.15;14.80;;;;;;;15.47;100.00;101023.63;2095719;28;20049;-71
2023/05/25 02:34:05;;;;;;;18.80;13.88;;;;;;;15.44;100.00;101022.72;2096728;28;20114;-71
2023/05/25 02:35:27;;;;;;;20.52;14.93;;;;;;;15.42;100.00;101021.88;2099593;28;20040;-72
2023/05/25 02:36:49;;;;;;;19.23;14.18;;;;;;;15.40;100.00;101018.31;2100163;28;20527;-71
2023/05/25 02:38:11;;;;;;;20.30;14.68;;;;;;;15.37;100.00;101016.53;2110903;28;20104;-71
2023/05/25 02:39:34;;;;;;;19.52;14.65;;;;;;;15.36;100.00;101017.41;2097984;28;20061;-71
2023/05/25 02:40:57;;;;;;;20.92;14.73;;;;;;;15.36;100.00;101021.88;2100594;28;20044;-71
2023/05/25 02:42:20;;;;;;;20.65;14.43;;;;;;;15.36;100.00;101016.56;2098754;28;20052;-71
2023/05/25 02:43:43;;;;;;;20.70;15.77;;;;;;;15.35;100.00;101012.13;2092318;28;20062;-71
2023/05/25 02:45:09;;;;;;;20.15;15.05;;;;;;;15.35;100.00;101012.13;2106623;28;20104;-72
2023/05/25 02:46:32;;;;;;;22.98;15.13;;;;;;;15.32;100.00;101013.00;2102417;28;20048;-71
2023/05/25 02:47:54;;;;;;;18.58;14.60;;;;;;;15.31;100.00;101010.31;2101274;28;20052;-71
2023/05/25 02:49:18;;;;;;;21.98;14.75;;;;;;;15.29;100.00;101009.47;2093600;28;20032;-71
2023/05/25 02:50:40;;;;;;;22.80;15.68;;;;;;;15.28;100.00;101018.31;2092738;28;20121;-71
2023/05/25 02:52:06;;;;;;;21.77;14.38;;;;;;;15.27;100.00;101016.53;2092867;28;20135;-71
2023/05/25 02:53:27;;;;;;;18.92;14.80;;;;;;;15.26;100.00;101014.75;2093183;28;20517;-71
2023/05/25 02:54:51;;;;;;;20.50;14.77;;;;;;;15.25;100.00;101015.63;2097799;28;20040;-72
2023/05/25 02:56:21;;;;;;;18.83;15.38;;;;;;;15.24;100.00;101014.75;2097251;28;20147;-71
2023/05/25 02:57:43;;;;;;;21.05;14.63;;;;;;;15.22;100.00;101019.19;2100237;28;20117;-71
2023/05/25 02:59:11;;;;;;;19.67;14.88;;;;;;;15.21;100.00;101011.22;2102500;28;20048;-71
2023/05/25 03:00:34;;;;;;;23.60;14.88;;;;;;;15.22;100.00;101018.31;2094567;28;20048;-71
2023/05/25 03:01:55;;;;;;;19.83;15.02;;;;;;;15.21;100.00;101013.88;2106681;28;20431;-72
2023/05/25 03:03:17;;;;;;;20.58;15.30;;;;;;;15.21;100.00;101025.41;2102542;28;20052;-71
2023/05/25 03:04:40;;;;;;;21.40;14.80;;;;;;;15.21;100.00;101020.09;2103906;28;20126;-71
2023/05/25 03:06:03;;;;;;;18.58;14.65;;;;;;;15.22;100.00;101018.31;2098299;28;20131;-71
2023/05/25 03:07:25;;;;;;;20.85;15.48;;;;;;;15.21;100.00;101021.84;2100654;28;20040;-71
2023/05/25 03:08:50;;;;;;;24.77;15.23;;;;;;;15.20;100.00;101014.75;2107804;28;20047;-71
2023/05/25 03:10:13;;;;;;;23.75;15.88;;;;;;;15.20;100.00;101020.06;2102259;28;20071;-71
2023/05/25 03:11:35;;;;;;;21.45;15.70;;;;;;;15.19;100.00;101021.84;2104722;28;20048;-71
2023/05/25 03:12:58;;;;;;;20.65;14.38;;;;;;;15.17;100.00;101023.59;2099496;28;20064;-71
2023/05/25 03:14:21;;;;;;;19.70;15.60;;;;;;;15.15;100.00;101020.97;2099428;28;20536;-71
2023/05/25 03:15:50;;;;;;;23.48;15.18;;;;;;;15.13;100.00;101021.84;2096016;28;20078;-71
2023/05/25 03:17:11;;;;;;;18.40;13.60;;;;;;;15.11;100.00;101021.84;2109152;28;20441;-71
2023/05/25 03:18:34;;;;;;;18.52;13.88;;;;;;;15.09;100.00;101023.63;2102286;28;20142;-71
2023/05/25 03:19:55;;;;;;;18.40;13.77;;;;;;;15.09;100.00;101023.63;2109139;28;20044;-71
2023/05/25 03:21:18;;;;;;;18.13;13.60;;;;;;;15.07;100.00;101028.03;2103241;28;20436;-71
2023/05/25 03:22:41;;;;;;;16.58;13.15;;;;;;;15.05;100.00;101029.81;2107498;28;20076;-72
2023/05/25 03:24:04;;;;;;;16.85;12.85;;;;;;;15.05;100.00;101035.13;2100220;28;20048;-71
2023/05/25 03:25:29;;;;;;;15.95;13.02;;;;;;;15.08;100.00;101028.94;2100681;28;20535;-71
2023/05/25 03:26:53;;;;;;;16.33;11.90;;;;;;;15.09;100.00;101025.41;2103788;28;20035;-71
2023/05/25 03:28:14;;;;;;;16.38;11.77;;;;;;;15.11;100.00;101027.16;2088709;28;20177;-71
2023/05/25 03:29:37;;;;;;;16.15;11.40;;;;;;;15.13;100.00;101025.38;2097902;28;20036;-71
2023/05/25 03:31:00;;;;;;;13.23;11.27;;;;;;;15.15;100.00;101031.59;2108634;28;20038;-71
2023/05/25 03:32:22;;;;;;;14.27;10.75;;;;;;;15.19;100.00;101039.56;2096761;28;20048;-71
2023/05/25 03:33:45;;;;;;;12.98;10.35;;;;;;;15.21;100.00;101037.81;2100566;28;20051;-71
2023/05/25 03:35:08;;;;;;;15.52;10.18;;;;;;;15.24;100.00;101030.72;2110897;28;20048;-71
2023/05/25 03:36:32;;;;;;;15.65;10.43;;;;;;;15.29;100.00;101036.06;2101046;28;20048;-71
2023/05/25 03:37:54;;;;;;;13.70;10.38;;;;;;;15.36;100.00;101040.50;2100195;28;20085;-71
2023/05/25 03:39:16;;;;;;;12.68;9.70;;;;;;;15.40;100.00;101035.16;2099703;28;20479;-71
2023/05/25 03:40:40;;;;;;;13.68;8.80;;;;;;;15.44;100.00;101042.25;2107585;28;20055;-71
2023/05/25 03:42:03;;;;;;;12.32;8.70;;;;;;;15.49;100.00;101042.28;2102412;28;20052;-71
2023/05/25 03:43:26;;;;;;;11.50;9.00;;;;;;;15.53;100.00;101036.97;2092304;28;20139;-71
2023/05/25 03:44:48;;;;;;;12.18;8.48;;;;;;;15.60;100.00;101040.53;2105700;28;20032;-71
2023/05/25 03:46:10;;;;;;;12.07;8.60;;;;;;;15.64;100.00;101039.63;2102986;28;20043;-71
2023/05/25 03:47:33;;;;;;;10.98;8.40;;;;;;;15.69;100.00;101036.94;2094972;28;20052;-71
2023/05/25 03:48:55;;;;;;;10.32;8.27;;;;;;;15.74;100.00;101045.84;2100615;28;20174;-71
2023/05/25 03:50:17;;;;;;;10.82;8.68;;;;;;;15.79;100.00;101044.94;2094864;28;20041;-71
2023/05/25 03:51:39;;;;;;;;;;;;;;;15.82;100.00;101054.66;2092620;28;20048;-72
2023/05/25 03:53:01;;;;;;;11.85;8.43;;;;;;;15.85;100.00;101050.25;2102833;28;19920;-71
2023/05/25 03:54:24;;;;;;;10.38;8.35;;;;;;;15.93;100.00;101051.13;2094350;28;20450;-71
2023/05/25 03:55:50;;;;;;;10.15;7.78;;;;;;;16.01;100.00;101050.22;2094465;28;20453;-71
2023/05/25 03:57:12;;;;;;;10.23;6.97;;;;;;;16.08;100.00;101052.00;2094929;28;20095;-71
2023/05/25 03:58:34;;;;;;;10.07;7.32;;;;;;;16.12;100.00;101049.31;2097443;28;20036;-71
2023/05/25 03:59:55;;;;;;;10.20;7.75;;;;;;;16.19;100.00;101056.41;2106397;28;20062;-71
2023/05/25 04:01:18;;;;;;;12.45;7.80;;;;;;;16.27;100.00;101064.38;2105493;28;20044;-71
2023/05/25 04:02:40;;;;;;;12.23;7.55;;;;;;;16.34;100.00;101059.00;2101482;28;20051;-71
2023/05/25 04:04:03;;;;;;;18.77;7.97;;;;;;;16.43;100.00;101055.41;2097099;28;20077;-71
2023/05/25 04:05:26;;;;;;;9.43;7.30;;;;;;;16.52;100.00;101062.50;2103748;28;20048;-71
2023/05/25 04:06:48;;;;;;;9.43;7.75;;;;;;;16.61;100.00;101049.16;2100167;28;20382;-71
2023/05/25 04:08:10;;;;;;;8.80;6.75;;;;;;;16.67;100.00;101060.69;2110303;28;20716;-71
2023/05/25 04:09:31;;;;;;;9.93;6.78;;;;;;;16.71;100.00;101054.47;2097084;28;20040;-70
2023/05/25 04:10:56;;;;;;;9.80;7.47;;;;;;;16.79;100.00;101056.19;2102671;28;20063;-71
2023/05/25 04:12:18;;;;;;;12.95;7.07;;;;;;;16.87;100.00;101059.72;2104461;28;20058;-71
2023/05/25 04:13:40;;;;;;;10.02;7.55;;;;;;;16.96;100.00;101057.88;2108535;28;20074;-72
2023/05/25 04:15:07;;;;;;;10.45;6.65;;;;;;;17.07;100.00;101055.13;2102675;28;20488;-71
2023/05/25 04:16:35;;;;;;;8.85;6.85;;;;;;;17.16;100.00;101054.19;2101912;28;20048;-71
2023/05/25 04:17:58;;;;;;;10.10;7.03;;;;;;;17.24;100.00;101058.59;2094796;28;20037;-71
2023/05/25 04:19:20;;;;;;;9.35;5.80;;;;;;;17.30;100.00;101063.88;2108710;28;20040;-72
2023/05/25 04:20:43;;;;;;;10.73;6.78;;;;;;;17.36;100.00;101055.81;2096643;28;20076;-72
2023/05/25 04:22:08;;;;;;;10.88;6.90;;;;;;;17.45;100.00;101061.09;2094748;28;20135;-72
2023/05/25 04:23:30;;;;;;;8.85;6.32;;;;;;;17.56;100.00;101060.13;2106421;28;20044;-71
2023/05/25 04:24:53;;;;;;;10.63;6.53;;;;;;;17.64;100.00;101053.88;2108137;28;20146;-72
2023/05/25 04:26:16;;;;;;;10.27;6.75;;;;;;;17.79;100.00;101052.81;2100289;28;20040;-72
2023/05/25 04:27:39;;;;;;;7.88;5.88;;;;;;;17.90;100.00;101050.97;2099169;28;20059;-71
2023/05/25 04:29:03;;;;;;;9.25;6.65;;;;;;;18.04;100.00;101058.84;2099192;28;20040;-71
2023/05/25 04:30:45;;;;;;;11.48;7.38;;;;;;;18.15;100.00;101057.81;2112780;28;20076;-71
2023/05/25 04:32:28;;;;;;;9.65;6.57;;;;;;;18.26;100.00;101049.66;2128576;27;20057;-71
2023/05/25 04:34:13;;;;;;;10.18;6.75;;;;;;;18.38;100.00;101049.53;2107839;28;20491;-72
2023/05/25 04:35:39;;;;;;;10.02;6.60;;;;;;;18.52;100.00;101044.00;2103057;28;20060;-72
2023/05/25 04:37:05;;;;;;;9.15;6.90;;;;;;;18.64;100.00;101051.94;2108876;28;20488;-72
2023/05/25 04:38:29;;;;;;;9.48;6.88;;;;;;;18.73;100.00;101048.22;2102067;28;20044;-72
2023/05/25 04:39:52;;;;;;;9.75;6.90;;;;;;;18.84;100.00;101047.19;2094344;28;20163;-71
2023/05/25 04:41:17;;;;;;;;;;;;;;;18.85;100.00;101046.28;2113253;27;20046;-72
2023/05/25 04:42:46;;;;;;;8.85;6.78;;;;;;;18.93;100.00;101047.06;2096973;28;19920;-71
2023/05/25 04:44:09;;;;;;;11.07;7.30;;;;;;;19.06;100.00;101045.97;2100465;28;20036;-71
2023/05/25 04:45:34;;;;;;;11.90;7.82;;;;;;;19.19;100.00;101049.34;2100157;28;20439;-72
2023/05/25 04:46:58;;;;;;;10.05;6.93;;;;;;;19.31;100.00;101046.47;2099625;28;20159;-72
2023/05/25 04:48:28;;;;;;;10.50;7.20;;;;;;;19.43;100.00;101056.13;2100668;28;20143;-72
2023/05/25 04:49:49;;;;;;;11.38;7.85;;;;;;;19.53;100.00;101049.75;2095594;28;20071;-71
2023/05/25 04:51:12;;;;;;;13.98;7.95;;;;;;;19.63;100.00;101059.38;2108121;28;20039;-72
2023/05/25 04:52:35;;;;;;;11.23;7.55;;;;;;;19.73;100.00;101054.78;2099227;28;20085;-71
2023/05/25 04:53:59;;;;;;;9.10;7.00;;;;;;;19.82;100.00;101058.16;2098838;28;20048;-72
2023/05/25 04:55:20;;;;;;;9.90;7.20;;;;;;;19.93;100.00;101055.31;2097323;28;20040;-70
2023/05/25 04:56:45;;;;;;;9.07;5.93;;;;;;;20.01;100.00;101050.69;2115738;27;20693;-71
2023/05/25 04:58:08;;;;;;;10.52;6.40;;;;;;;20.10;100.00;101055.88;2103484;28;20501;-72
2023/05/25 04:59:29;;;;;;;8.82;6.32;;;;;;;20.23;100.00;101043.09;2097768;28;20048;-72
2023/05/25 05:00:52;;;;;;;8.35;5.50;;;;;;;20.36;100.00;101052.72;2098968;28;20035;-71
2023/05/25 05:02:14;;;;;;;9.52;6.60;;;;;;;20.48;100.00;101044.41;2099885;28;20082;-72
2023/05/25 05:03:37;;;;;;;10.60;6.43;;;;;;;20.61;100.00;101045.94;2095143;28;20048;-72
2023/05/25 05:05:00;;;;;;;10.20;6.38;;;;;;;20.74;100.00;101043.00;2107334;28;20059;-71
2023/05/25 05:06:21;;;;;;;11.40;5.85;;;;;;;20.83;100.00;101043.66;2094387;28;20105;-72
2023/05/25 05:07:44;;;;;;;9.93;5.72;;;;;;;20.94;100.00;101043.41;2094020;28;20047;-72
2023/05/25 05:09:07;;;;;;;9.45;6.15;;;;;;;21.04;100.00;101036.94;2107467;28;20147;-71
2023/05/25 05:10:29;;;;;;;9.98;5.90;;;;;;;21.16;100.00;101041.16;2093610;28;20052;-71
2023/05/25 05:11:54;;;;;;;8.68;5.15;;;;;;;21.25;100.00;101040.97;2108522;28;20046;-72
2023/05/25 05:13:18;;;;;;;7.65;4.85;;;;;;;21.34;100.00;101044.31;2105574;28;20551;-71
2023/05/25 05:14:40;;;;;;;8.27;5.20;;;;;;;21.44;100.00;101045.84;2107321;28;20039;-71
2023/05/25 05:16:03;;;;;;;8.40;5.32;;;;;;;21.56;100.00;101043.78;2104140;28;20048;-72
2023/05/25 05:17:25;;;;;;;9.88;5.13;;;;;;;21.66;100.00;101046.19;2102023;28;20667;-72
2023/05/25 05:18:47;;;;;;;10.35;5.65;;;;;;;21.74;100.00;101041.50;2097797;28;20060;-72
2023/05/25 05:20:10;;;;;;;10.48;5.85;;;;;;;21.84;100.00;101042.16;2102056;28;20028;-72
2023/05/25 05:21:34;;;;;;;10.55;4.82;;;;;;;21.91;100.00;101043.78;2087956;28;20044;-72
2023/05/25 05:22:59;;;;;;;8.32;4.30;;;;;;;21.99;100.00;101047.13;2090335;28;20530;-71
2023/05/25 05:24:23;;;;;;;9.52;4.53;;;;;;;22.04;100.00;101042.56;2093136;28;20036;-72
2023/05/25 05:25:46;;;;;;;8.73;4.32;;;;;;;22.07;100.00;101047.81;2096263;28;20721;-72
2023/05/25 05:27:14;;;;;;;8.88;4.30;;;;;;;22.14;100.00;101045.84;2096583;28;20083;-72
2023/05/25 05:28:41;;;;;;;9.05;5.30;;;;;;;22.23;100.00;101045.59;2099965;28;20062;-72
2023/05/25 05:30:05;;;;;;;8.20;4.95;;;;;;;22.31;100.00;101043.59;2097510;28;20385;-72
2023/05/25 05:31:26;;;;;;;9.65;5.18;;;;;;;22.42;100.00;101052.25;2100486;28;20113;-72
2023/05/25 05:32:48;;;;;;;10.45;5.18;;;;;;;22.55;100.00;101040.19;2100370;28;20101;-71
2023/05/25 05:34:12;;;;;;;7.18;4.22;;;;;;;22.66;100.00;101040.75;2098354;28;20044;-71
2023/05/25 05:35:34;;;;;;;8.40;5.22;;;;;;;22.76;100.00;101049.47;2099998;28;20044;-72
2023/05/25 05:37:03;;;;;;;7.13;4.85;;;;;;;22.87;100.00;101041.94;2109204;28;20626;-72
2023/05/25 05:38:25;;;;;;;8.10;4.88;;;;;;;22.97;100.00;101042.56;2099808;28;20055;-71
2023/05/25 05:39:48;;;;;;;9.90;4.85;;;;;;;23.10;100.00;101040.38;2092659;28;20485;-72
2023/05/25 05:41:13;;;;;;;7.47;4.55;;;;;;;23.21;100.00;101038.19;2098254;28;20576;-71
2023/05/25 05:42:37;;;;;;;7.70;4.70;;;;;;;23.32;100.00;101046.81;2098231;28;20067;-71
2023/05/25 05:44:00;;;;;;;9.85;4.45;;;;;;;23.43;100.00;101047.38;2103569;28;20044;-71
2023/05/25 05:45:22;;;;;;;9.02;4.85;;;;;;;23.50;100.00;101038.16;2101357;28;20055;-71
2023/05/25 05:46:45;;;;;;;7.72;4.30;;;;;;;23.53;100.00;101043.47;2110423;28;20402;-71
2023/05/25 05:48:09;;;;;;;7.15;4.25;;;;;;;23.63;100.00;101044.91;2110665;28;20464;-71
2023/05/25 05:49:33;;;;;;;8.77;5.00;;;;;;;23.73;100.00;101046.38;2097785;28;20162;-72
2023/05/25 05:50:56;;;;;;;7.28;4.32;;;;;;;23.87;100.00;101050.41;2091822;28;20090;-71
2023/05/25 05:52:19;;;;;;;7.35;4.65;;;;;;;24.01;100.00;101053.50;2091238;28;20052;-71
2023/05/25 05:53:41;;;;;;;7.28;4.70;;;;;;;24.13;100.00;101048.56;2097476;28;20062;-70
2023/05/25 05:55:05;;;;;;;7.57;4.68;;;;;;;24.31;100.00;101052.44;2099042;28;20125;-70
2023/05/25 05:56:28;;;;;;;7.88;4.65;;;;;;;24.42;100.00;101054.72;2102373;28;20069;-71
2023/05/25 05:57:52;;;;;;;6.38;4.25;;;;;;;24.57;100.00;101052.34;2095853;28;20153;-71
2023/05/25 05:59:15;;;;;;;5.47;4.03;;;;;;;24.73;100.00;101057.19;2104748;28;20047;-71
2023/05/25 06:00:37;;;;;;;8.70;4.53;;;;;;;24.89;100.00;101055.63;2093936;28;20044;-71
2023/05/25 06:02:02;;;;;;;9.88;4.63;;;;;;;25.01;100.00;101061.47;2094852;28;20040;-71
2023/05/25 06:03:26;;;;;;;7.65;4.80;;;;;;;25.14;100.00;101050.22;2095015;28;20060;-70
2023/05/25 06:04:48;;;;;;;5.82;4.00;;;;;;;25.28;100.00;101047.81;2098966;28;20040;-71
2023/05/25 06:06:12;;;;;;;11.07;4.50;;;;;;;25.36;100.00;101051.97;2099296;28;20079;-71
2023/05/25 06:07:34;;;;;;;5.70;3.70;;;;;;;25.44;100.00;101054.34;2092761;28;20045;-71
2023/05/25 06:08:57;;;;;;;8.40;3.90;;;;;;;25.57;100.00;101043.91;2100935;28;20096;-71
2023/05/25 06:10:19;;;;;;;5.85;4.05;;;;;;;25.68;100.00;101047.06;2095265;28;20083;-71
2023/05/25 06:11:41;;;;;;;4.95;3.42;;;;;;;25.76;100.00;101045.81;2092814;28;20048;-71
2023/05/25 06:13:06;;;;;;;6.88;3.53;;;;;;;25.87;100.00;101047.16;2101210;28;20074;-71
2023/05/25 06:14:29;;;;;;;6.63;3.38;;;;;;;25.96;100.00;101047.66;2097509;28;20044;-71
2023/05/25 06:15:54;;;;;;;5.40;3.20;;;;;;;26.05;97.94;101040.97;2100698;28;20040;-71
2023/05/25 06:17:20;;;;;;;4.97;2.97;;;;;;;26.16;96.68;101042.25;2104322;28;20044;-72
2023/05/25 06:18:42;;;;;;;5.70;3.15;;;;;;;26.33;96.15;101046.94;2101157;28;20040;-72